createdAt,value
2023-02-19T00:00:29.297Z,1012.70
2023-02-19T00:01:29.283Z,1012.76
2023-02-19T00:02:29.269Z,1012.72
2023-02-19T00:03:29.977Z,1012.76
2023-02-19T00:04:29.238Z,1012.68
2023-02-19T00:05:29.246Z,1012.66
2023-02-19T00:06:29.215Z,1012.62
2023-02-19T00:07:29.207Z,1012.56
2023-02-19T00:08:29.194Z,1012.52
2023-02-19T00:09:29.195Z,1012.55
2023-02-19T00:10:29.170Z,1012.54
2023-02-19T00:11:29.179Z,1012.64
2023-02-19T00:12:29.147Z,1012.59
2023-02-19T00:13:29.788Z,1012.64
2023-02-19T00:14:29.108Z,1012.73
2023-02-19T00:15:29.128Z,1012.52
2023-02-19T00:16:29.088Z,1012.75
2023-02-19T00:17:29.090Z,1012.71
2023-02-19T00:18:29.063Z,1012.69
2023-02-19T00:19:29.056Z,1012.66
2023-02-19T00:20:29.032Z,1012.65
2023-02-19T00:21:29.029Z,1012.67
2023-02-19T00:22:29.020Z,1012.66
2023-02-19T00:23:29.028Z,1012.66
2023-02-19T00:24:32.910Z,1012.69
2023-02-19T00:25:28.993Z,1012.60
2023-02-19T00:26:28.961Z,1012.57
2023-02-19T00:27:28.952Z,1012.60
2023-02-19T00:28:28.952Z,1012.66
2023-02-19T00:29:30.129Z,1012.61
2023-02-19T00:30:28.954Z,1012.52
2023-02-19T00:31:32.667Z,1012.56
2023-02-19T00:32:28.996Z,1012.59
2023-02-19T00:33:32.557Z,1012.57
2023-02-19T00:34:28.892Z,1012.49
2023-02-19T00:35:29.126Z,1012.45
2023-02-19T00:36:28.851Z,1012.60
2023-02-19T00:37:28.818Z,1012.61
2023-02-19T00:38:28.800Z,1012.47
2023-02-19T00:39:32.489Z,1012.71
2023-02-19T00:40:32.661Z,1012.58
2023-02-19T00:41:29.519Z,1012.55
2023-02-19T00:42:29.719Z,1012.52
2023-02-19T00:43:28.741Z,1012.60
2023-02-19T00:44:28.730Z,1012.53
2023-02-19T00:45:28.711Z,1012.50
2023-02-19T00:46:28.747Z,1012.55
2023-02-19T00:47:28.721Z,1012.59
2023-02-19T00:48:28.953Z,1012.70
2023-02-19T00:49:28.932Z,1012.58
2023-02-19T00:50:28.653Z,1012.56
2023-02-19T00:51:28.652Z,1012.55
2023-02-19T00:52:28.645Z,1012.56
2023-02-19T00:53:28.651Z,1012.67
2023-02-19T00:54:29.336Z,1012.62
2023-02-19T00:55:28.856Z,1012.72
2023-02-19T00:56:28.577Z,1012.69
2023-02-19T00:57:28.557Z,1012.65
2023-02-19T00:58:29.503Z,1012.62
2023-02-19T00:59:32.370Z,1012.65
2023-02-19T01:00:28.534Z,1012.55
2023-02-19T01:01:28.801Z,1012.58
2023-02-19T01:02:28.510Z,1012.62
2023-02-19T01:03:28.495Z,1012.68
2023-02-19T01:04:28.498Z,1012.62
2023-02-19T01:05:29.217Z,1012.63
2023-02-19T01:06:28.457Z,1012.56
2023-02-19T01:07:28.439Z,1012.66
2023-02-19T01:08:28.428Z,1012.68
2023-02-19T01:09:29.147Z,1012.60
2023-02-19T01:10:28.639Z,1012.60
2023-02-19T01:11:28.403Z,1012.62
2023-02-19T01:12:28.379Z,1012.51
2023-02-19T01:13:32.827Z,1012.52
2023-02-19T01:14:28.360Z,1012.50
2023-02-19T01:15:28.336Z,1012.53
2023-02-19T01:16:28.381Z,1012.54
2023-02-19T01:17:28.331Z,1012.53
2023-02-19T01:18:28.322Z,1012.55
2023-02-19T01:19:31.993Z,1012.55
2023-02-19T01:20:28.260Z,1012.62
2023-02-19T01:21:32.059Z,1012.51
2023-02-19T01:22:29.261Z,1012.55
2023-02-19T01:23:29.851Z,1012.56
2023-02-19T01:24:28.451Z,1012.61
2023-02-19T01:25:28.191Z,1012.59
2023-02-19T01:26:28.901Z,1012.59
2023-02-19T01:27:29.313Z,1012.56
2023-02-19T01:28:28.190Z,1012.58
2023-02-19T01:29:28.155Z,1012.52
2023-02-19T01:30:28.149Z,1012.53
2023-02-19T01:31:28.920Z,1012.53
2023-02-19T01:32:28.379Z,1012.54
2023-02-19T01:33:31.927Z,1012.58
2023-02-19T01:34:29.070Z,1012.53
2023-02-19T01:35:28.073Z,1012.51
2023-02-19T01:36:28.305Z,1012.59
2023-02-19T01:37:28.052Z,1012.55
2023-02-19T01:38:28.037Z,1012.56
2023-02-19T01:39:28.005Z,1012.52
2023-02-19T01:40:28.050Z,1012.55
2023-02-19T01:41:27.997Z,1012.52
2023-02-19T01:42:27.992Z,1012.59
2023-02-19T01:43:28.658Z,1012.51
2023-02-19T01:44:28.443Z,1012.54
2023-02-19T01:45:27.947Z,1012.51
2023-02-19T01:46:31.723Z,1012.54
2023-02-19T01:47:32.626Z,1012.54
2023-02-19T01:48:27.909Z,1012.60
2023-02-19T01:49:27.900Z,1012.59
2023-02-19T01:50:28.550Z,1012.62
2023-02-19T01:51:27.876Z,1012.55
2023-02-19T01:52:28.159Z,1012.55
2023-02-19T01:53:32.055Z,1012.57
2023-02-19T01:54:27.812Z,1012.58
2023-02-19T01:55:27.812Z,1012.57
2023-02-19T01:56:27.817Z,1012.51
2023-02-19T01:57:27.793Z,1012.49
2023-02-19T01:58:28.752Z,1012.48
2023-02-19T01:59:27.754Z,1012.52
2023-02-19T02:00:28.507Z,1012.55
2023-02-19T02:01:27.743Z,1012.50
2023-02-19T02:02:27.730Z,1012.49
2023-02-19T02:03:27.724Z,1012.49
2023-02-19T02:04:27.725Z,1012.55
2023-02-19T02:05:27.697Z,1012.57
2023-02-19T02:06:27.676Z,1012.52
2023-02-19T02:07:38.918Z,1012.54
2023-02-19T02:08:27.658Z,1012.56
2023-02-19T02:09:27.638Z,1012.47
2023-02-19T02:10:27.649Z,1012.47
2023-02-19T02:11:38.776Z,1012.58
2023-02-19T02:12:28.290Z,1012.54
2023-02-19T02:13:27.632Z,1012.54
2023-02-19T02:14:27.581Z,1012.55
2023-02-19T02:15:27.564Z,1012.55
2023-02-19T02:16:27.729Z,1012.57
2023-02-19T02:17:29.398Z,1012.56
2023-02-19T02:18:28.488Z,1012.49
2023-02-19T02:19:27.536Z,1012.55
2023-02-19T02:20:27.522Z,1012.57
2023-02-19T02:21:27.494Z,1012.65
2023-02-19T02:22:29.267Z,1012.59
2023-02-19T02:23:27.476Z,1012.55
2023-02-19T02:24:27.458Z,1012.58
2023-02-19T02:25:27.444Z,1012.58
2023-02-19T02:26:27.422Z,1012.58
2023-02-19T02:27:28.157Z,1012.51
2023-02-19T02:28:27.884Z,1012.50
2023-02-19T02:29:31.149Z,1012.49
2023-02-19T02:30:27.433Z,1012.52
2023-02-19T02:31:27.437Z,1012.52
2023-02-19T02:32:27.351Z,1012.52
2023-02-19T02:33:28.016Z,1012.47
2023-02-19T02:34:27.359Z,1012.48
2023-02-19T02:35:27.317Z,1012.45
2023-02-19T02:36:27.301Z,1012.50
2023-02-19T02:37:27.290Z,1012.51
2023-02-19T02:38:27.280Z,1012.53
2023-02-19T02:39:27.273Z,1012.46
2023-02-19T02:40:27.281Z,1012.54
2023-02-19T02:41:27.241Z,1012.49
2023-02-19T02:42:27.417Z,1012.44
2023-02-19T02:43:28.044Z,1012.53
2023-02-19T02:44:27.206Z,1012.49
2023-02-19T02:45:27.446Z,1012.51
2023-02-19T02:46:27.205Z,1012.51
2023-02-19T02:47:27.165Z,1012.49
2023-02-19T02:48:27.403Z,1012.51
2023-02-19T02:49:27.393Z,1012.53
2023-02-19T02:50:27.122Z,1012.50
2023-02-19T02:51:30.844Z,1012.46
2023-02-19T02:52:27.393Z,1012.51
2023-02-19T02:53:27.322Z,1012.57
2023-02-19T02:54:27.295Z,1012.60
2023-02-19T02:55:27.087Z,1012.61
2023-02-19T02:56:27.054Z,1012.73
2023-02-19T02:57:27.048Z,1012.65
2023-02-19T02:58:27.456Z,1012.71
2023-02-19T02:59:27.009Z,1012.73
2023-02-19T03:00:26.999Z,1012.73
2023-02-19T03:01:26.990Z,1012.65
2023-02-19T03:02:26.981Z,1012.72
2023-02-19T03:03:26.980Z,1012.70
2023-02-19T03:04:27.222Z,1012.69
2023-02-19T03:05:27.880Z,1012.66
2023-02-19T03:06:26.911Z,1012.68
2023-02-19T03:07:26.921Z,1012.67
2023-02-19T03:08:27.850Z,1012.71
2023-02-19T03:09:26.881Z,1012.78
2023-02-19T03:10:26.903Z,1012.79
2023-02-19T03:11:28.513Z,1012.74
2023-02-19T03:12:27.106Z,1012.73
2023-02-19T03:13:26.825Z,1012.73
2023-02-19T03:14:26.832Z,1012.72
2023-02-19T03:15:27.502Z,1012.77
2023-02-19T03:16:30.503Z,1012.79
2023-02-19T03:17:26.794Z,1012.74
2023-02-19T03:18:30.544Z,1012.76
2023-02-19T03:19:27.026Z,1012.74
2023-02-19T03:20:26.733Z,1012.79
2023-02-19T03:21:31.535Z,1012.79
2023-02-19T03:22:26.991Z,1012.81
2023-02-19T03:23:26.714Z,1012.75
2023-02-19T03:24:26.683Z,1012.78
2023-02-19T03:25:26.681Z,1012.81
2023-02-19T03:26:26.676Z,1012.85
2023-02-19T03:27:27.323Z,1012.80
2023-02-19T03:28:28.184Z,1012.87
2023-02-19T03:29:26.620Z,1012.89
2023-02-19T03:30:26.650Z,1012.85
2023-02-19T03:31:26.651Z,1012.84
2023-02-19T03:32:30.474Z,1012.93
2023-02-19T03:33:26.602Z,1012.87
2023-02-19T03:34:26.593Z,1012.86
2023-02-19T03:35:26.557Z,1012.94
2023-02-19T03:36:26.536Z,1013.00
2023-02-19T03:37:26.517Z,1013.00
2023-02-19T03:38:26.758Z,1012.92
2023-02-19T03:39:26.488Z,1012.95
2023-02-19T03:40:26.510Z,1013.11
2023-02-19T03:41:26.727Z,1013.01
2023-02-19T03:42:26.489Z,1013.09
2023-02-19T03:43:26.440Z,1013.03
2023-02-19T03:44:27.117Z,1013.12
2023-02-19T03:45:26.408Z,1013.06
2023-02-19T03:46:26.422Z,1013.10
2023-02-19T03:47:26.622Z,1013.02
2023-02-19T03:48:27.319Z,1013.14
2023-02-19T03:49:33.791Z,1013.14
2023-02-19T03:50:26.343Z,1013.18
2023-02-19T03:51:26.330Z,1013.07
2023-02-19T03:52:26.345Z,1013.20
2023-02-19T03:53:26.312Z,1013.18
2023-02-19T03:54:26.302Z,1013.21
2023-02-19T03:55:26.284Z,1013.23
2023-02-19T03:56:26.292Z,1013.20
2023-02-19T03:57:26.265Z,1013.24
2023-02-19T03:58:26.272Z,1013.34
2023-02-19T03:59:26.253Z,1013.29
2023-02-19T04:00:26.229Z,1013.22
2023-02-19T04:01:26.220Z,1013.21
2023-02-19T04:02:29.999Z,1013.29
2023-02-19T04:03:27.142Z,1013.23
2023-02-19T04:04:26.511Z,1013.21
2023-02-19T04:05:26.182Z,1013.28
2023-02-19T04:06:26.152Z,1013.21
2023-02-19T04:07:26.143Z,1013.22
2023-02-19T04:08:26.126Z,1013.23
2023-02-19T04:09:26.361Z,1013.17
2023-02-19T04:10:29.906Z,1013.18
2023-02-19T04:11:26.372Z,1013.26
2023-02-19T04:12:26.076Z,1013.29
2023-02-19T04:13:26.055Z,1013.28
2023-02-19T04:14:26.045Z,1013.30
2023-02-19T04:15:26.993Z,1013.34
2023-02-19T04:16:27.049Z,1013.31
2023-02-19T04:17:26.019Z,1013.38
2023-02-19T04:18:26.246Z,1013.36
2023-02-19T04:19:25.986Z,1013.39
2023-02-19T04:20:25.960Z,1013.40
2023-02-19T04:21:26.208Z,1013.45
2023-02-19T04:22:25.990Z,1013.49
2023-02-19T04:23:25.950Z,1013.46
2023-02-19T04:24:25.908Z,1013.52
2023-02-19T04:25:25.909Z,1013.50
2023-02-19T04:26:26.159Z,1013.59
2023-02-19T04:27:26.350Z,1013.55
2023-02-19T04:28:26.089Z,1013.56
2023-02-19T04:29:25.875Z,1013.56
2023-02-19T04:30:25.880Z,1013.56
2023-02-19T04:31:26.790Z,1013.63
2023-02-19T04:32:25.816Z,1013.54
2023-02-19T04:33:25.804Z,1013.62
2023-02-19T04:34:29.388Z,1013.66
2023-02-19T04:35:25.775Z,1013.70
2023-02-19T04:36:25.772Z,1013.63
2023-02-19T04:37:26.021Z,1013.68
2023-02-19T04:38:25.742Z,1013.72
2023-02-19T04:39:37.618Z,1013.73
2023-02-19T04:40:25.760Z,1013.75
2023-02-19T04:41:25.701Z,1013.72
2023-02-19T04:42:25.687Z,1013.68
2023-02-19T04:43:25.948Z,1013.71
2023-02-19T04:44:25.658Z,1013.76
2023-02-19T04:45:26.398Z,1013.74
2023-02-19T04:46:25.715Z,1013.73
2023-02-19T04:47:25.668Z,1013.75
2023-02-19T04:48:25.608Z,1013.75
2023-02-19T04:49:25.598Z,1013.76
2023-02-19T04:50:25.576Z,1013.80
2023-02-19T04:51:25.569Z,1013.78
2023-02-19T04:52:25.602Z,1013.88
2023-02-19T04:53:25.800Z,1013.87
2023-02-19T04:54:25.530Z,1013.89
2023-02-19T04:55:32.829Z,1013.92
2023-02-19T04:56:25.500Z,1013.89
2023-02-19T04:57:29.235Z,1013.99
2023-02-19T04:58:26.600Z,1013.98
2023-02-19T04:59:26.440Z,1014.04
2023-02-19T05:00:25.440Z,1014.07
2023-02-19T05:01:25.440Z,1014.05
2023-02-19T05:02:25.433Z,1014.12
2023-02-19T05:03:25.417Z,1014.13
2023-02-19T05:04:25.460Z,1014.20
2023-02-19T05:05:36.671Z,1014.19
2023-02-19T05:06:25.405Z,1014.18
2023-02-19T05:07:25.365Z,1014.18
2023-02-19T05:08:25.357Z,1014.26
2023-02-19T05:09:25.348Z,1014.20
2023-02-19T05:10:25.366Z,1014.12
2023-02-19T05:11:25.326Z,1014.12
2023-02-19T05:12:25.296Z,1014.14
2023-02-19T05:13:26.256Z,1014.29
2023-02-19T05:14:25.281Z,1014.21
2023-02-19T05:15:25.246Z,1014.17
2023-02-19T05:16:25.257Z,1014.25
2023-02-19T05:17:25.229Z,1014.30
2023-02-19T05:18:25.231Z,1014.32
2023-02-19T05:19:25.199Z,1014.33
2023-02-19T05:20:25.207Z,1014.31
2023-02-19T05:21:25.185Z,1014.34
2023-02-19T05:22:25.208Z,1014.37
2023-02-19T05:23:25.620Z,1014.38
2023-02-19T05:24:36.882Z,1014.36
2023-02-19T05:25:28.849Z,1014.39
2023-02-19T05:26:25.119Z,1014.48
2023-02-19T05:27:25.101Z,1014.45
2023-02-19T05:28:25.319Z,1014.48
2023-02-19T05:29:25.978Z,1014.49
2023-02-19T05:30:25.209Z,1014.51
2023-02-19T05:31:26.749Z,1014.50
2023-02-19T05:32:25.061Z,1014.50
2023-02-19T05:33:25.020Z,1014.54
2023-02-19T05:34:25.033Z,1014.52
2023-02-19T05:35:25.007Z,1014.54
2023-02-19T05:36:24.990Z,1014.52
2023-02-19T05:37:24.986Z,1014.57
2023-02-19T05:38:24.964Z,1014.59
2023-02-19T05:39:24.954Z,1014.58
2023-02-19T05:40:25.215Z,1014.53
2023-02-19T05:41:25.889Z,1014.56
2023-02-19T05:42:24.927Z,1014.58
2023-02-19T05:43:25.573Z,1014.60
2023-02-19T05:44:25.143Z,1014.57
2023-02-19T05:45:24.865Z,1014.55
2023-02-19T05:46:24.923Z,1014.58
2023-02-19T05:47:24.853Z,1014.67
2023-02-19T05:48:24.828Z,1014.64
2023-02-19T05:49:24.819Z,1014.70
2023-02-19T05:50:24.880Z,1014.75
2023-02-19T05:51:24.812Z,1014.70
2023-02-19T05:52:24.859Z,1014.79
2023-02-19T05:53:24.789Z,1014.80
2023-02-19T05:54:24.757Z,1014.80
2023-02-19T05:55:24.742Z,1014.72
2023-02-19T05:56:24.739Z,1014.80
2023-02-19T05:57:24.722Z,1014.90
2023-02-19T05:58:25.433Z,1014.88
2023-02-19T05:59:24.700Z,1014.82
2023-02-19T06:00:24.692Z,1014.82
2023-02-19T06:01:24.674Z,1014.82
2023-02-19T06:02:24.963Z,1014.79
2023-02-19T06:03:24.662Z,1014.90
2023-02-19T06:04:24.643Z,1014.86
2023-02-19T06:05:24.614Z,1014.92
2023-02-19T06:06:24.604Z,1014.87
2023-02-19T06:07:24.596Z,1014.95
2023-02-19T06:08:24.573Z,1014.91
2023-02-19T06:09:25.183Z,1014.92
2023-02-19T06:10:24.586Z,1014.95
2023-02-19T06:11:24.551Z,1014.98
2023-02-19T06:12:24.542Z,1014.94
2023-02-19T06:13:24.513Z,1014.98
2023-02-19T06:14:25.858Z,1014.96
2023-02-19T06:15:24.489Z,1014.99
2023-02-19T06:16:24.546Z,1015.09
2023-02-19T06:17:25.415Z,1015.01
2023-02-19T06:18:24.446Z,1015.04
2023-02-19T06:19:24.436Z,1015.05
2023-02-19T06:20:26.298Z,1015.09
2023-02-19T06:21:24.417Z,1015.03
2023-02-19T06:22:28.236Z,1015.04
2023-02-19T06:23:24.387Z,1015.08
2023-02-19T06:24:24.411Z,1015.04
2023-02-19T06:25:24.373Z,1015.08
2023-02-19T06:26:28.627Z,1015.10
2023-02-19T06:27:24.338Z,1015.12
2023-02-19T06:28:25.305Z,1015.11
2023-02-19T06:29:24.333Z,1015.14
2023-02-19T06:30:28.006Z,1015.16
2023-02-19T06:31:25.332Z,1015.20
2023-02-19T06:32:24.686Z,1015.31
2023-02-19T06:33:24.678Z,1015.27
2023-02-19T06:34:24.531Z,1015.26
2023-02-19T06:35:24.468Z,1015.35
2023-02-19T06:36:24.227Z,1015.38
2023-02-19T06:37:24.213Z,1015.34
2023-02-19T06:38:24.216Z,1015.36
2023-02-19T06:39:24.193Z,1015.43
2023-02-19T06:40:24.183Z,1015.38
2023-02-19T06:41:24.156Z,1015.41
2023-02-19T06:42:24.146Z,1015.45
2023-02-19T06:43:24.804Z,1015.43
2023-02-19T06:44:24.125Z,1015.51
2023-02-19T06:45:27.816Z,1015.52
2023-02-19T06:46:24.188Z,1015.53
2023-02-19T06:47:25.498Z,1015.54
2023-02-19T06:48:24.069Z,1015.69
2023-02-19T06:49:24.717Z,1015.76
2023-02-19T06:50:24.057Z,1015.85
2023-02-19T06:51:24.035Z,1015.86
2023-02-19T06:52:24.062Z,1016.03
2023-02-19T06:53:24.021Z,1016.07
2023-02-19T06:54:24.240Z,1016.10
2023-02-19T06:55:23.972Z,1016.26
2023-02-19T06:56:23.971Z,1016.13
2023-02-19T06:57:23.960Z,1016.18
2023-02-19T06:58:24.133Z,1016.26
2023-02-19T06:59:23.922Z,1016.26
2023-02-19T07:00:23.932Z,1016.26
2023-02-19T07:01:23.915Z,1016.35
2023-02-19T07:02:23.902Z,1016.36
2023-02-19T07:03:23.875Z,1016.36
2023-02-19T07:04:23.957Z,1016.51
2023-02-19T07:05:23.853Z,1016.49
2023-02-19T07:06:23.831Z,1016.50
2023-02-19T07:07:24.485Z,1016.69
2023-02-19T07:08:29.528Z,1016.58
2023-02-19T07:09:23.789Z,1016.60
2023-02-19T07:10:23.811Z,1016.71
2023-02-19T07:11:28.399Z,1016.64
2023-02-19T07:12:23.771Z,1016.68
2023-02-19T07:13:24.701Z,1016.64
2023-02-19T07:14:23.739Z,1016.65
2023-02-19T07:15:24.434Z,1016.80
2023-02-19T07:16:31.160Z,1016.71
2023-02-19T07:17:23.692Z,1016.69
2023-02-19T07:18:23.689Z,1016.75
2023-02-19T07:19:23.678Z,1016.72
2023-02-19T07:20:23.659Z,1016.81
2023-02-19T07:21:23.652Z,1016.88
2023-02-19T07:22:23.809Z,1016.89
2023-02-19T07:23:23.620Z,1016.86
2023-02-19T07:24:23.643Z,1016.94
2023-02-19T07:25:23.603Z,1016.89
2023-02-19T07:26:23.588Z,1016.92
2023-02-19T07:27:23.566Z,1016.90
2023-02-19T07:28:23.590Z,1016.91
2023-02-19T07:29:23.544Z,1016.96
2023-02-19T07:30:23.580Z,1017.05
2023-02-19T07:31:23.655Z,1017.03
2023-02-19T07:32:23.513Z,1017.06
2023-02-19T07:33:23.484Z,1017.06
2023-02-19T07:34:23.504Z,1017.08
2023-02-19T07:35:25.125Z,1017.11
2023-02-19T07:36:23.455Z,1017.10
2023-02-19T07:37:24.686Z,1017.10
2023-02-19T07:38:23.444Z,1017.11
2023-02-19T07:39:23.427Z,1017.17
2023-02-19T07:40:23.430Z,1017.15
2023-02-19T07:41:23.397Z,1017.17
2023-02-19T07:42:23.404Z,1017.23
2023-02-19T07:43:23.369Z,1017.24
2023-02-19T07:44:23.360Z,1017.21
2023-02-19T07:45:23.425Z,1017.35
2023-02-19T07:46:23.642Z,1017.27
2023-02-19T07:47:23.323Z,1017.25
2023-02-19T07:48:23.334Z,1017.32
2023-02-19T07:49:23.306Z,1017.33
2023-02-19T07:50:23.824Z,1017.48
2023-02-19T07:51:23.290Z,1017.45
2023-02-19T07:52:23.303Z,1017.54
2023-02-19T07:53:23.503Z,1017.50
2023-02-19T07:54:23.245Z,1017.42
2023-02-19T07:55:23.222Z,1017.56
2023-02-19T07:56:44.485Z,1017.53
2023-02-19T07:57:23.194Z,1017.57
2023-02-19T07:58:24.195Z,1017.62
2023-02-19T07:59:23.180Z,1017.65
2023-02-19T08:00:23.167Z,1017.68
2023-02-19T08:01:23.217Z,1017.65
2023-02-19T08:02:23.140Z,1017.70
2023-02-19T08:03:23.132Z,1017.72
2023-02-19T08:04:23.140Z,1017.78
2023-02-19T08:05:23.116Z,1017.75
2023-02-19T08:06:23.088Z,1017.78
2023-02-19T08:07:23.339Z,1017.76
2023-02-19T08:08:23.066Z,1017.75
2023-02-19T08:09:23.052Z,1017.69
2023-02-19T08:10:23.076Z,1017.73
2023-02-19T08:11:23.032Z,1017.71
2023-02-19T08:12:23.021Z,1017.79
2023-02-19T08:13:23.014Z,1017.75
2023-02-19T08:14:23.011Z,1017.81
2023-02-19T08:15:22.986Z,1017.81
2023-02-19T08:16:36.737Z,1017.80
2023-02-19T08:17:23.974Z,1017.82
2023-02-19T08:18:23.620Z,1017.84
2023-02-19T08:19:23.198Z,1017.84
2023-02-19T08:20:22.911Z,1017.93
2023-02-19T08:21:22.902Z,1017.91
2023-02-19T08:22:22.997Z,1017.92
2023-02-19T08:23:23.932Z,1018.00
2023-02-19T08:24:22.913Z,1018.01
2023-02-19T08:25:22.853Z,1018.06
2023-02-19T08:26:22.926Z,1018.11
2023-02-19T08:27:22.832Z,1018.11
2023-02-19T08:28:23.122Z,1018.11
2023-02-19T08:29:22.802Z,1018.07
2023-02-19T08:30:22.865Z,1018.04
2023-02-19T08:31:26.698Z,1018.11
2023-02-19T08:32:33.934Z,1018.05
2023-02-19T08:33:22.767Z,1018.05
2023-02-19T08:34:22.796Z,1018.06
2023-02-19T08:35:22.732Z,1018.07
2023-02-19T08:36:22.995Z,1018.01
2023-02-19T08:37:22.703Z,1018.05
2023-02-19T08:38:22.695Z,1018.07
2023-02-19T08:39:33.776Z,1018.04
2023-02-19T08:40:22.695Z,1018.14
2023-02-19T08:41:23.596Z,1018.09
2023-02-19T08:42:22.992Z,1018.04
2023-02-19T08:43:22.626Z,1018.10
2023-02-19T08:44:22.637Z,1018.15
2023-02-19T08:45:22.605Z,1018.20
2023-02-19T08:46:22.725Z,1018.22
2023-02-19T08:47:23.550Z,1018.21
2023-02-19T08:48:22.569Z,1018.27
2023-02-19T08:49:22.549Z,1018.26
2023-02-19T08:50:22.536Z,1018.24
2023-02-19T08:51:22.539Z,1018.29
2023-02-19T08:52:22.555Z,1018.37
2023-02-19T08:53:22.506Z,1018.40
2023-02-19T08:54:22.486Z,1018.43
2023-02-19T08:55:22.476Z,1018.43
2023-02-19T08:56:22.467Z,1018.38
2023-02-19T08:57:22.475Z,1018.40
2023-02-19T08:58:22.469Z,1018.42
2023-02-19T08:59:22.446Z,1018.42
2023-02-19T09:00:22.426Z,1018.54
2023-02-19T09:01:22.416Z,1018.47
2023-02-19T09:02:22.655Z,1018.61
2023-02-19T09:03:22.383Z,1018.65
2023-02-19T09:04:22.415Z,1018.59
2023-02-19T09:05:23.543Z,1018.70
2023-02-19T09:06:22.341Z,1018.66
2023-02-19T09:07:23.199Z,1018.76
2023-02-19T09:08:22.322Z,1018.74
2023-02-19T09:09:22.304Z,1018.73
2023-02-19T09:10:25.934Z,1018.75
2023-02-19T09:11:23.229Z,1018.80
2023-02-19T09:12:22.273Z,1018.85
2023-02-19T09:13:22.279Z,1018.75
2023-02-19T09:14:22.235Z,1018.75
2023-02-19T09:15:22.231Z,1018.84
2023-02-19T09:16:22.247Z,1018.80
2023-02-19T09:17:22.200Z,1018.83
2023-02-19T09:18:22.182Z,1018.88
2023-02-19T09:19:22.194Z,1018.86
2023-02-19T09:20:22.674Z,1018.85
2023-02-19T09:21:22.154Z,1018.94
2023-02-19T09:22:22.173Z,1018.94
2023-02-19T09:23:23.098Z,1019.04
2023-02-19T09:24:22.122Z,1018.99
2023-02-19T09:25:22.362Z,1019.05
2023-02-19T09:26:22.103Z,1019.05
2023-02-19T09:27:22.093Z,1018.98
2023-02-19T09:28:22.082Z,1019.04
2023-02-19T09:29:22.310Z,1018.99
2023-02-19T09:30:22.170Z,1018.99
2023-02-19T09:31:22.135Z,1019.03
2023-02-19T09:32:22.020Z,1019.04
2023-02-19T09:33:22.010Z,1019.01
2023-02-19T09:34:22.001Z,1018.99
2023-02-19T09:35:21.972Z,1019.11
2023-02-19T09:36:21.964Z,1019.11
2023-02-19T09:37:21.950Z,1019.16
2023-02-19T09:38:21.930Z,1019.20
2023-02-19T09:39:21.935Z,1019.22
2023-02-19T09:40:21.989Z,1019.33
2023-02-19T09:41:22.153Z,1019.33
2023-02-19T09:42:21.921Z,1019.30
2023-02-19T09:43:22.142Z,1019.37
2023-02-19T09:44:21.855Z,1019.44
2023-02-19T09:45:21.854Z,1019.45
2023-02-19T09:46:21.892Z,1019.52
2023-02-19T09:47:21.818Z,1019.47
2023-02-19T09:48:21.805Z,1019.53
2023-02-19T09:49:21.836Z,1019.55
2023-02-19T09:50:22.607Z,1019.45
2023-02-19T09:51:25.587Z,1019.49
2023-02-19T09:52:21.817Z,1019.49
2023-02-19T09:53:21.775Z,1019.55
2023-02-19T09:54:21.759Z,1019.57
2023-02-19T09:55:21.731Z,1019.70
2023-02-19T09:56:21.706Z,1019.65
2023-02-19T09:57:21.939Z,1019.70
2023-02-19T09:58:21.753Z,1019.84
2023-02-19T09:59:21.680Z,1019.88
2023-02-19T10:00:21.665Z,1019.88
2023-02-19T10:01:21.675Z,1019.88
2023-02-19T10:02:21.660Z,1019.89
2023-02-19T10:03:21.997Z,1019.93
2023-02-19T10:04:21.644Z,1020.08
2023-02-19T10:05:21.694Z,1019.98
2023-02-19T10:06:21.579Z,1020.08
2023-02-19T10:07:21.820Z,1020.05
2023-02-19T10:08:21.555Z,1020.07
2023-02-19T10:09:21.535Z,1020.04
2023-02-19T10:10:21.548Z,1020.13
2023-02-19T10:11:21.539Z,1020.11
2023-02-19T10:12:21.509Z,1020.09
2023-02-19T10:13:25.260Z,1020.13
2023-02-19T10:14:21.731Z,1020.06
2023-02-19T10:15:21.460Z,1020.10
2023-02-19T10:16:21.718Z,1020.09
2023-02-19T10:17:22.393Z,1020.03
2023-02-19T10:18:21.420Z,1020.08
2023-02-19T10:19:21.411Z,1020.01
2023-02-19T10:20:21.652Z,1020.05
2023-02-19T10:21:21.403Z,1020.03
2023-02-19T10:22:21.653Z,1020.09
2023-02-19T10:23:21.364Z,1020.06
2023-02-19T10:24:21.354Z,1020.08
2023-02-19T10:25:21.331Z,1020.01
2023-02-19T10:26:21.332Z,1020.07
2023-02-19T10:27:21.303Z,1019.99
2023-02-19T10:28:21.324Z,1020.01
2023-02-19T10:29:21.286Z,1020.03
2023-02-19T10:30:21.282Z,1020.09
2023-02-19T10:31:21.354Z,1020.03
2023-02-19T10:32:24.975Z,1020.06
2023-02-19T10:33:24.888Z,1020.13
2023-02-19T10:34:21.937Z,1020.16
2023-02-19T10:35:21.206Z,1020.13
2023-02-19T10:36:21.179Z,1020.21
2023-02-19T10:37:21.166Z,1020.28
2023-02-19T10:38:21.160Z,1020.18
2023-02-19T10:39:21.143Z,1020.25
2023-02-19T10:40:21.157Z,1020.25
2023-02-19T10:41:21.119Z,1020.18
2023-02-19T10:42:21.166Z,1020.26
2023-02-19T10:43:21.099Z,1020.27
2023-02-19T10:44:21.089Z,1020.24
2023-02-19T10:45:21.081Z,1020.29
2023-02-19T10:46:24.931Z,1020.29
2023-02-19T10:47:21.044Z,1020.28
2023-02-19T10:48:21.031Z,1020.31
2023-02-19T10:49:21.022Z,1020.29
2023-02-19T10:50:21.013Z,1020.32
2023-02-19T10:51:20.996Z,1020.20
2023-02-19T10:52:21.028Z,1020.29
2023-02-19T10:53:20.961Z,1020.35
2023-02-19T10:54:20.963Z,1020.26
2023-02-19T10:55:20.950Z,1020.35
2023-02-19T10:56:20.923Z,1020.34
2023-02-19T10:57:20.919Z,1020.39
2023-02-19T10:58:20.924Z,1020.39
2023-02-19T10:59:20.896Z,1020.39
2023-02-19T11:00:20.887Z,1020.34
2023-02-19T11:01:20.914Z,1020.43
2023-02-19T11:02:24.749Z,1020.41
2023-02-19T11:03:20.839Z,1020.41
2023-02-19T11:04:20.962Z,1020.38
2023-02-19T11:05:21.026Z,1020.41
2023-02-19T11:06:20.802Z,1020.37
2023-02-19T11:07:21.987Z,1020.38
2023-02-19T11:08:20.766Z,1020.38
2023-02-19T11:09:22.418Z,1020.45
2023-02-19T11:10:20.769Z,1020.41
2023-02-19T11:11:20.730Z,1020.37
2023-02-19T11:12:20.731Z,1020.42
2023-02-19T11:13:20.707Z,1020.37
2023-02-19T11:14:24.534Z,1020.36
2023-02-19T11:15:20.691Z,1020.36
2023-02-19T11:16:20.722Z,1020.43
2023-02-19T11:17:20.658Z,1020.39
2023-02-19T11:18:21.320Z,1020.39
2023-02-19T11:19:20.631Z,1020.32
2023-02-19T11:20:20.626Z,1020.34
2023-02-19T11:21:20.608Z,1020.31
2023-02-19T11:22:20.638Z,1020.32
2023-02-19T11:23:20.829Z,1020.34
2023-02-19T11:24:21.004Z,1020.36
2023-02-19T11:25:20.590Z,1020.37
2023-02-19T11:26:20.607Z,1020.37
2023-02-19T11:27:21.483Z,1020.36
2023-02-19T11:28:20.551Z,1020.36
2023-02-19T11:29:20.506Z,1020.40
2023-02-19T11:30:20.526Z,1020.34
2023-02-19T11:31:20.593Z,1020.41
2023-02-19T11:32:20.781Z,1020.28
2023-02-19T11:33:20.457Z,1020.34
2023-02-19T11:34:20.480Z,1020.33
2023-02-19T11:35:20.453Z,1020.32
2023-02-19T11:36:20.421Z,1020.27
2023-02-19T11:37:20.399Z,1020.30
2023-02-19T11:38:20.409Z,1020.29
2023-02-19T11:39:20.639Z,1020.22
2023-02-19T11:40:20.391Z,1020.26
2023-02-19T11:41:21.311Z,1020.27
2023-02-19T11:42:20.379Z,1020.33
2023-02-19T11:43:20.595Z,1020.24
2023-02-19T11:44:20.335Z,1020.26
2023-02-19T11:45:20.319Z,1020.34
2023-02-19T11:46:20.474Z,1020.33
2023-02-19T11:47:20.295Z,1020.38
2023-02-19T11:48:21.897Z,1020.39
2023-02-19T11:49:20.494Z,1020.36
2023-02-19T11:50:20.255Z,1020.39
2023-02-19T11:51:20.226Z,1020.34
2023-02-19T11:52:20.490Z,1020.43
2023-02-19T11:53:20.227Z,1020.44
2023-02-19T11:54:20.217Z,1020.40
2023-02-19T11:55:20.188Z,1020.43
2023-02-19T11:56:20.167Z,1020.38
2023-02-19T11:57:20.158Z,1020.42
2023-02-19T11:58:20.156Z,1020.51
2023-02-19T11:59:20.138Z,1020.39
2023-02-19T12:00:20.121Z,1020.42
2023-02-19T12:01:20.106Z,1020.38
2023-02-19T12:02:20.183Z,1020.38
2023-02-19T12:03:20.080Z,1020.39
2023-02-19T12:04:20.129Z,1020.46
2023-02-19T12:05:20.110Z,1020.37